Location:  
MeteoStar


Sort by weather type Sort by elevation Sort by visibility Sort from west to east north Sort from north to south Alphabetically Sort from strongest wind speed Sort from lowest to highest pressure Sort from highest to lowest dew point temperature Sort coolest temperatures to warmest Sort warm temperatures to coolest
 Metric

Current Observations for United Kingdom

Aberdeen / Dyce19:20ZClear39 3231018.3N 2 39213
Belfast / Aldergrove Airport19:20ZMostly Cloudy45 4361017.3SSE 5 42265
Belfast / Harbour19:20ZCloudy45 4161017.1S 5 4216
Benbecula19:20ZCloudy45 4341014.1SE 12 3919
Biggin Hill 19:20ZNot Avail.39 3451023.5SSW 6 35600
Birmingham / Airport19:20ZNot Avail.41 3951022.3S 3 41324
Blackpool Airport19:20ZPartly Cloudy45 3951020.1SSE 9 4032
Boulmer19:50ZCloudy39 3461019.2WSW 7 3475
Bournemouth Airport19:20ZNot Avail.36 3651024.1ENE 1 3636
Bristol / Lulsgate 19:20ZCloudy45 4151023.4SSW 5 42620
Brize Norton19:50ZMostly Cloudy37 3661023.3CALM37288
Cardiff-Wales Airport19:20ZCloudy50 4651023.2SW 4 49219
Coningsby Royal Air Force Base19:50ZNot Avail.37 3461022.1SW 2 3722
Culdrose19:50ZCloudy52 4651023.2WSW 7 50255
Dundee / Riverside19:20ZNot Avail.39 3641018.1CALM3913
East Midlands19:20ZPartly Cloudy41 3631022.3SSW 6 37308
Edinburgh Airport19:20ZMostly Cloudy37 3631019.2CALM37134
Eglinton / Londonderr19:20ZLight Rain46 4551015.1SW 6 4329
Exeter Airport19:20ZMostly Cloudy48 4561023.2S 3 4898
Farnborough19:20ZNot Avail.34 3451024.3S 1 34213
Glasgow Airport19:20ZLight Rain39 3631018.1ENE 5 3526
Guernsey Airport19:20ZMostly Cloudy52 4651024.2S 6 50334
Humberside19:20ZNot Avail.39 3451021.2S 4 36101
Inverness / Dalcross19:20ZNot Avail.36 3431018.1CALM3629
Isle Of Man / Ronaldsway Airport19:20ZLight Rain50 4831019.1SSW 12 4555
Jersey Airport19:20ZMostly Cloudy50 4651025.2SSE 4 49275
Kirkwall Airport19:20ZMostly Cloudy39 3431017.2N 3 3968
Leeds And Bradford19:20ZClear41 3251020.6SW 4 38682
Leuchars19:50ZNot Avail.37 3461018.1W 6 3239
Liverpool Airport 19:20ZCloudy46 4351021.2SSE 4 4485
London / Gatwick Airport19:20ZNot Avail.37 3651023.2SSE 2 37203
London / Heathrow Airport19:20ZClear41 3651024.2WSW 7 3678
London City Airport19:20ZClear45 3651023.1SW 7 4116
Lossiemouth19:50ZCloudy37 3461017.1S 2 3742
Luton Airport 19:20ZClear39 3651023.5SW 5 35524
Lydd Airport 19:20ZClear41 3651024.1W 6 379
Manchester Airport19:20ZMostly Cloudy43 3751021.3N 3 43226
Marham19:50ZNot Avail.36 3261022.2SSE 4 3375
Newcastle 19:20ZNot Avail.37 3431020.3SSW 2 37265
Northolt19:50ZNot Avail.39 3761023.2W 2 39124
Norwich Weather Centre19:20ZNot Avail.34 3261022.2WSW 5 2945
Odiham19:50ZNot Avail.39 3461023.4SW 4 36403
Prestwick Airport19:20ZClear43 3731018.2SE 3 4365
Scatsa / Shetland Island19:20ZClear37 3041015.2W 6 3272
Southampton / Weather Centre19:20ZFog34 3251024.1CALM3429
Southend-On-Sea 19:20ZNot Avail.41 3251023.1WSW 4 3849
Stansted Airport19:20ZClear39 3661023.3SW 5 35347
Stornoway19:20ZLight Rain43 3961016.1E 5 4029
Sumburgh Cape 19:20ZShowers nearby39 3231016.1N 6 3516
Tiree19:20ZMostly Cloudy46 4161014.1SSE 21 3839
Waddington19:50ZNot Avail.41 3461021.3WSW 5 38223
Wick19:20ZMostly Cloudy39 3631017.2W 6 35127

Atlantic
Tropical Watch